Aconcagua Bay — A8KY9 — position and weather

sailwx.info

Track history (hours):
 
Tides and Currents Weather Stations Pressure Air Temp Water Temp Dewpoint Dewpoint Depression Visibility Wind Speed Wind Dir Waves Ship Positions

Aconcagua Bay

Last reported at 2018-May-24 02:12 UTC. Time now 2018-Jun-18 05:37 UTC.
Position N 08°42' W 017°08'.
Warning: this ship's position is 25 days out of date.

Length 148 m; draft 8.8 m.

Type: Cargo ship. MMSI: 636013146.

Date/timePositionNaut miles runAvg speedWind from/ knotsBaromVisibWave heightAir tempDewpointWater temp
2018-May-24 02:12N 08°42' W 017°08'315.1
2018-May-24 02:00N 08°44' W 017°10'3915.3
2018-May-23 23:26N 09°08' W 017°41'915.1
2018-May-23 22:51N 09°14' W 017°48'2315.0
2018-May-23 21:19N 09°35' W 017°56'515.3
2018-May-23 21:00N 09°40' W 017°58'815.1
2018-May-23 20:30N 09°47' W 017°60'715.0
2018-May-23 20:00N 09°54' W 018°02'815.0
2018-May-23 19:30N 10°02' W 018°04'915.3
2018-May-23 18:55N 10°10' W 018°06'815.3
2018-May-23 18:25N 10°18' W 018°08'1015.2
2018-May-23 17:46N 10°27' W 018°11'  
2018-May-20 17:59N 27°44' W 015°18'714.9
2018-May-20 17:30N 27°51' W 015°15'815.6
2018-May-20 17:00N 27°59' W 015°15'714.7
2018-May-20 16:30N 28°05' W 015°20'4 8.2
2018-May-20 15:58N 28°06' W 015°24'0 0.1
2018-May-20 15:22N 28°06' W 015°24'0 0.0
2018-May-20 14:52N 28°06' W 015°24'0 0.0
2018-May-20 14:22N 28°06' W 015°24'0 0.0
2018-May-20 13:52N 28°06' W 015°24'0 0.1
2018-May-20 13:22N 28°06' W 015°24'0 0.5
2018-May-20 13:00N 28°06' W 015°24'3 5.7
2018-May-20 12:30N 28°07' W 015°21'4 8.7
2018-May-20 12:00N 28°11' W 015°20'611.7
2018-May-20 11:30N 28°17' W 015°20'713.7
2018-May-20 11:00N 28°24' W 015°19'715.2
2018-May-20 10:30N 28°31' W 015°18'815.3
2018-May-20 10:00N 28°39' W 015°17'  
2018-May-16 13:07N 52°01' W 011°27'315.0
2018-May-16 12:56N 52°03' W 011°26'9615.3
2018-May-16 06:40N 53°39' W 011°07'314.9
2018-May-16 06:28N 53°42' W 011°07'815.0
2018-May-16 05:55N 53°50' W 011°05'715.1
2018-May-16 05:28N 53°56' W 011°03'815.3
2018-May-16 04:59N 54°04' W 011°02'915.8
2018-May-16 04:25N 54°13' W 011°00'815.8
2018-May-16 03:54N 54°21' W 010°58'615.6
2018-May-16 03:30N 54°27' W 010°57'915.4
2018-May-16 02:56N 54°36' W 010°56'  
Track history (hours):
 
Tides and Currents Weather Stations Pressure Air Temp Water Temp Dewpoint Dewpoint Depression Visibility Wind Speed Wind Dir Waves Ship Positions

Aconcagua Bay

Last reported at 2018-May-24 02:12 UTC. Time now 2018-Jun-18 05:37 UTC.
Position N 08°42' W 017°08'.
Warning: this ship's position is 25 days out of date.

Length 148 m; draft 8.8 m.

Type: Cargo ship. MMSI: 636013146.

Date/timePositionNaut miles runAvg speedWind from/ knotsBaromVisibWave heightAir tempDewpointWater temp
2018-May-24 02:12N 08°42' W 017°08'315.1
2018-May-24 02:00N 08°44' W 017°10'3915.3
2018-May-23 23:26N 09°08' W 017°41'915.1
2018-May-23 22:51N 09°14' W 017°48'2315.0
2018-May-23 21:19N 09°35' W 017°56'515.3
2018-May-23 21:00N 09°40' W 017°58'815.1
2018-May-23 20:30N 09°47' W 017°60'715.0
2018-May-23 20:00N 09°54' W 018°02'815.0
2018-May-23 19:30N 10°02' W 018°04'915.3
2018-May-23 18:55N 10°10' W 018°06'815.3
2018-May-23 18:25N 10°18' W 018°08'1015.2
2018-May-23 17:46N 10°27' W 018°11'  
2018-May-20 17:59N 27°44' W 015°18'714.9
2018-May-20 17:30N 27°51' W 015°15'815.6
2018-May-20 17:00N 27°59' W 015°15'714.7
2018-May-20 16:30N 28°05' W 015°20'4 8.2
2018-May-20 15:58N 28°06' W 015°24'0 0.1
2018-May-20 15:22N 28°06' W 015°24'0 0.0
2018-May-20 14:52N 28°06' W 015°24'0 0.0
2018-May-20 14:22N 28°06' W 015°24'0 0.0
2018-May-20 13:52N 28°06' W 015°24'0 0.1
2018-May-20 13:22N 28°06' W 015°24'0 0.5
2018-May-20 13:00N 28°06' W 015°24'3 5.7
2018-May-20 12:30N 28°07' W 015°21'4 8.7
2018-May-20 12:00N 28°11' W 015°20'611.7
2018-May-20 11:30N 28°17' W 015°20'713.7
2018-May-20 11:00N 28°24' W 015°19'715.2
2018-May-20 10:30N 28°31' W 015°18'815.3
2018-May-20 10:00N 28°39' W 015°17'  
2018-May-16 13:07N 52°01' W 011°27'315.0
2018-May-16 12:56N 52°03' W 011°26'9615.3
2018-May-16 06:40N 53°39' W 011°07'314.9
2018-May-16 06:28N 53°42' W 011°07'815.0
2018-May-16 05:55N 53°50' W 011°05'715.1
2018-May-16 05:28N 53°56' W 011°03'815.3
2018-May-16 04:59N 54°04' W 011°02'915.8
2018-May-16 04:25N 54°13' W 011°00'815.8
2018-May-16 03:54N 54°21' W 010°58'615.6
2018-May-16 03:30N 54°27' W 010°57'915.4
2018-May-16 02:56N 54°36' W 010°56'  

Dump ship's entire track history